Time;durP1;ratioP1;P1;durP2;ratioP2;P2;SDS_P1;SDS_P2;PMS_P1;PMS_P2;Temp;Humidity;BMP_temperature;BMP_pressure;BME280_temperature;BME280_humidity;BME280_pressure;Samples;Min_cycle;Max_cycle;Signal;HPM_P1;HPM_P2
2022/09/29 00:02:15;;;;;;;;;;;;;;;21.84;47.94;99899.52;103883;1317;71540;-86
2022/09/29 00:04:41;;;;;;;;;;;;;;;21.84;47.97;99894.29;103871;1317;62238;-82
2022/09/29 00:07:06;;;;;;;;;;;;;;;21.84;47.82;99893.77;103630;1317;62641;-86
2022/09/29 00:09:32;;;;;;;;;;;;;;;21.84;47.88;99889.48;103868;1317;62062;-85
2022/09/29 00:12:00;;;;;;;;;;;;;;;21.84;48.06;99885.90;103883;1317;62577;-84
2022/09/29 00:14:44;;;;;;;;;;;;;;;21.84;48.01;99879.82;103862;1316;77021;-84
2022/09/29 00:17:28;;;;;;;;;;;;;;;21.84;47.91;99876.79;104235;1310;62054;-84
2022/09/29 00:19:54;;;;;;;;;;;;;;;21.84;48.00;99873.93;104417;1310;62282;-85
2022/09/29 00:22:19;;;;;;;;;;;;;;;21.84;47.94;99876.25;104442;1310;62231;-86
2022/09/29 00:25:07;;;;;;;;;;;;;;;21.83;47.97;99870.94;104449;1310;76873;-85
2022/09/29 00:27:51;;;;;;;;;;;;;;;21.84;47.98;99870.88;104479;1309;62252;-86
2022/09/29 00:30:20;;;;;;;;;;;;;;;21.84;48.01;99871.77;104402;1311;62251;-84
2022/09/29 00:32:45;;;;;;;;;;;;;;;21.84;48.04;99870.17;104463;1310;73244;-86
2022/09/29 00:35:11;;;;;;;;;;;;;;;21.83;47.88;99864.24;104453;1310;62203;-84
2022/09/29 00:37:37;;;;;;;;;;;;;;;21.84;47.99;99861.20;104455;1311;62168;-84
2022/09/29 00:40:02;;;;;;;;;;;;;;;21.84;47.95;99861.20;104470;1310;62062;-84
2022/09/29 00:42:28;;;;;;;;;;;;;;;21.83;47.93;99857.30;104482;1309;62050;-84
2022/09/29 00:44:56;;;;;;;;;;;;;;;21.83;48.02;99855.14;104486;1311;62186;-84
2022/09/29 00:47:25;;;;;;;;;;;;;;;21.83;47.89;99857.46;104451;1311;76641;-85
2022/09/29 00:49:53;;;;;;;;;;;;;;;21.84;48.01;99852.06;104465;1311;62038;-82
2022/09/29 00:52:24;;;;;;;;;;;;;;;21.84;48.00;99859.79;104497;1309;62182;-84
2022/09/29 00:54:52;;;;;;;;;;;;;;;21.84;47.99;99857.61;104493;1309;72984;-87
2022/09/29 00:57:19;;;;;;;;;;;;;;;21.84;48.06;99853.88;104445;1310;75721;-85
2022/09/29 00:59:49;;;;;;;;;;;;;;;21.84;48.14;99851.17;104483;1311;62205;-85
2022/09/29 01:02:16;;;;;;;;;;;;;;;21.84;48.06;99847.94;104468;1311;63864;-88
2022/09/29 01:04:41;;;;;;;;;;;;;;;21.84;48.09;99840.59;104444;1310;62134;-86
2022/09/29 01:07:07;;;;;;;;;;;;;;;21.84;48.09;99838.64;104406;1312;62104;-86
2022/09/29 01:09:34;;;;;;;;;;;;;;;21.83;48.06;99834.35;104414;1312;62126;-85
2022/09/29 01:12:00;;;;;;;;;;;;;;;21.83;47.96;99833.83;104475;1311;62051;-84
2022/09/29 01:14:27;;;;;;;;;;;;;;;21.84;48.09;99834.52;104449;1310;62508;-84
2022/09/29 01:16:53;;;;;;;;;;;;;;;21.83;48.05;99832.41;104465;1309;62086;-85
2022/09/29 01:19:27;;;;;;;;;;;;;;;21.83;48.05;99831.84;104428;1311;62085;-85
2022/09/29 01:21:57;;;;;;;;;;;;;;;21.83;48.10;99827.75;104503;1309;61273;-85
2022/09/29 01:24:28;;;;;;;;;;;;;;;21.84;48.10;99824.13;104411;1309;72705;-85
2022/09/29 01:27:07;;;;;;;;;;;;;;;21.83;48.08;99824.35;104537;1308;76692;-85
2022/09/29 01:29:40;;;;;;;;;;;;;;;21.84;48.04;99825.23;104468;1309;61986;-84
2022/09/29 01:32:19;;;;;;;;;;;;;;;21.84;48.14;99830.24;104542;1308;62012;-86
2022/09/29 01:34:49;;;;;;;;;;;;;;;21.84;48.10;99829.50;104553;1308;73826;-84
2022/09/29 01:37:20;;;;;;;;;;;;;;;21.83;48.12;99823.23;104357;1310;75480;-86
2022/09/29 01:40:02;;;;;;;;;;;;;;;21.83;48.11;99820.55;104441;1309;61937;-85
2022/09/29 01:42:48;;;;;;;;;;;;;;;21.84;48.11;99816.08;104485;1309;61970;-85
2022/09/29 01:45:22;;;;;;;;;;;;;;;21.83;48.08;99808.94;104474;1309;73172;-86
2022/09/29 01:47:49;;;;;;;;;;;;;;;21.84;48.13;99810.18;104481;1310;75799;-86
2022/09/29 01:50:19;;;;;;;;;;;;;;;21.83;48.16;99808.04;104549;1308;62068;-89
2022/09/29 01:52:58;;;;;;;;;;;;;;;;;;;;;
2022/09/29 01:55:26;;;;;;;;;;;;;;;21.84;48.06;99809.98;104459;1309;73020;-86
2022/09/29 01:57:56;;;;;;;;;;;;;;;21.84;48.16;99809.08;104525;1308;75459;-84
2022/09/29 02:00:30;;;;;;;;;;;;;;;21.84;48.13;99809.09;104475;1308;62059;-83
2022/09/29 02:03:07;;;;;;;;;;;;;;;21.84;48.13;99808.02;104557;1308;62198;-84
2022/09/29 02:05:42;;;;;;;;;;;;;;;21.84;48.16;99808.17;104482;1308;72687;-85
2022/09/29 02:08:11;;;;;;;;;;;;;;;21.84;48.16;99808.91;104527;1308;75807;-84
2022/09/29 02:10:39;;;;;;;;;;;;;;;21.84;48.06;99812.67;104462;1309;62054;-90
2022/09/29 02:13:05;;;;;;;;;;;;;;;21.83;48.12;99810.18;104430;1311;63802;-84
2022/09/29 02:15:32;;;;;;;;;;;;;;;21.83;48.09;99806.63;104484;1309;62073;-87
2022/09/29 02:17:59;;;;;;;;;;;;;;;21.84;48.21;99806.20;104445;1308;75802;-84
2022/09/29 02:20:25;;;;;;;;;;;;;;;21.83;48.17;99810.38;104453;1308;62003;-84
2022/09/29 02:22:51;;;;;;;;;;;;;;;21.83;48.17;99815.75;104366;1312;62124;-87
2022/09/29 02:25:16;;;;;;;;;;;;;;;21.84;48.16;99818.79;104397;1312;62228;-85
2022/09/29 02:27:42;;;;;;;;;;;;;;;21.84;48.09;99820.56;104455;1311;62198;-83
2022/09/29 02:30:08;;;;;;;;;;;;;;;21.84;48.12;99825.91;104331;1312;62099;-85
2022/09/29 02:32:36;;;;;;;;;;;;;;;21.84;48.16;99825.94;104501;1310;62197;-85
2022/09/29 02:35:03;;;;;;;;;;;;;;;21.83;48.07;99832.02;104467;1310;61984;-84
2022/09/29 02:37:38;;;;;;;;;;;;;;;21.83;48.15;99831.70;104443;1310;73721;-86
2022/09/29 02:40:07;;;;;;;;;;;;;;;21.83;48.23;99838.50;104430;1311;75853;-84
2022/09/29 02:42:33;;;;;;;;;;;;;;;21.83;48.20;99839.56;104462;1311;62105;-86
2022/09/29 02:45:18;;;;;;;;;;;;;;;21.83;48.17;99843.02;104490;1311;62074;-84
2022/09/29 02:48:02;;;;;;;;;;;;;;;21.83;48.13;99840.30;104502;1309;73606;-86
2022/09/29 02:50:40;;;;;;;;;;;;;;;21.83;48.13;99838.22;104418;1311;76586;-85
2022/09/29 02:53:24;;;;;;;;;;;;;;;21.83;48.19;99836.95;104459;1311;61999;-85
2022/09/29 02:55:56;;;;;;;;;;;;;;;21.83;48.14;99832.81;104455;1311;61993;-84
2022/09/29 02:58:42;;;;;;;;;;;;;;;21.82;48.22;99836.98;104402;1311;72631;-84
2022/09/29 03:01:11;;;;;;;;;;;;;;;21.82;48.21;99833.21;104395;1311;76231;-84
2022/09/29 03:03:37;;;;;;;;;;;;;;;21.82;48.15;99830.04;104450;1310;62098;-84
2022/09/29 03:06:08;;;;;;;;;;;;;;;21.82;48.17;99835.39;104496;1309;63030;-84
2022/09/29 03:08:34;;;;;;;;;;;;;;;21.82;48.18;99833.21;104400;1311;73050;-86
2022/09/29 03:11:02;;;;;;;;;;;;;;;21.82;48.27;99838.58;104458;1311;76753;-84
2022/09/29 03:13:28;;;;;;;;;;;;;;;21.83;48.09;99842.85;104495;1311;62526;-84
2022/09/29 03:15:54;;;;;;;;;;;;;;;21.82;48.25;99849.69;104465;1311;62136;-86
2022/09/29 03:18:23;;;;;;;;;;;;;;;21.82;48.17;99847.02;104468;1309;62077;-84
2022/09/29 03:20:48;;;;;;;;;;;;;;;21.82;48.23;99846.30;104444;1310;74980;-86
2022/09/29 03:23:14;;;;;;;;;;;;;;;21.82;48.22;99848.63;104475;1311;62216;-82
2022/09/29 03:25:40;;;;;;;;;;;;;;;21.82;48.31;99850.08;104409;1310;59520;-84
2022/09/29 03:28:09;;;;;;;;;;;;;;;21.82;48.25;99848.08;104448;1311;61976;-87
2022/09/29 03:30:35;;;;;;;;;;;;;;;21.82;48.23;99842.58;104447;1311;75434;-85
2022/09/29 03:33:00;;;;;;;;;;;;;;;21.82;48.22;99844.55;104462;1310;62201;-84
2022/09/29 03:35:26;;;;;;;;;;;;;;;21.82;48.26;99846.69;104448;1311;62058;-86
2022/09/29 03:37:55;;;;;;;;;;;;;;;21.81;48.16;99849.77;104436;1310;62213;-86
2022/09/29 03:40:21;;;;;;;;;;;;;;;21.82;48.20;99851.19;104498;1309;75620;-85
2022/09/29 03:42:55;;;;;;;;;;;;;;;21.82;48.22;99849.94;104479;1310;62159;-86
2022/09/29 03:45:21;;;;;;;;;;;;;;;21.81;48.34;99846.38;104459;1310;62111;-84
2022/09/29 03:47:47;;;;;;;;;;;;;;;21.81;48.20;99849.27;104427;1311;62088;-84
2022/09/29 03:50:13;;;;;;;;;;;;;;;21.81;48.26;99851.77;104466;1311;62653;-85
2022/09/29 03:52:39;;;;;;;;;;;;;;;21.81;48.25;99852.14;104464;1311;62127;-84
2022/09/29 03:55:05;;;;;;;;;;;;;;;21.81;48.19;99853.77;104416;1311;62180;-85
2022/09/29 03:57:32;;;;;;;;;;;;;;;21.81;48.27;99853.36;104385;1310;62145;-83
2022/09/29 03:59:57;;;;;;;;;;;;;;;21.81;48.23;99854.27;104450;1310;62074;-85
2022/09/29 04:02:24;;;;;;;;;;;;;;;21.81;48.25;99853.92;104476;1309;62151;-85
2022/09/29 04:04:50;;;;;;;;;;;;;;;21.80;48.24;99855.09;104477;1308;63345;-84
2022/09/29 04:07:15;;;;;;;;;;;;;;;21.80;48.21;99857.77;104451;1308;62102;-87
2022/09/29 04:09:42;;;;;;;;;;;;;;;21.79;48.25;99855.90;104448;1309;62079;-84
2022/09/29 04:12:11;;;;;;;;;;;;;;;21.77;48.36;99852.11;104522;1308;75470;-84
2022/09/29 04:14:36;;;;;;;;;;;;;;;21.75;48.41;99855.11;104492;1309;61959;-87
2022/09/29 04:17:03;;;;;;;;;;;;;;;21.75;48.28;99858.38;104499;1309;62129;-84
2022/09/29 04:19:29;;;;;;;;;;;;;;;21.74;48.32;99858.08;104467;1309;62337;-84
2022/09/29 04:21:58;;;;;;;;;;;;;;;21.74;48.35;99857.07;104486;1309;62285;-86
2022/09/29 04:24:24;;;;;;;;;;;;;;;21.73;48.27;99862.70;104473;1308;62085;-84
2022/09/29 04:26:49;;;;;;;;;;;;;;;21.72;48.36;99868.16;104470;1309;62106;-84
2022/09/29 04:29:15;;;;;;;;;;;;;;;21.71;48.30;99866.77;104520;1309;62100;-85
2022/09/29 04:31:40;;;;;;;;;;;;;;;21.71;48.35;99870.90;104424;1311;62108;-85
2022/09/29 04:34:06;;;;;;;;;;;;;;;21.70;48.30;99871.35;104466;1309;62079;-84
2022/09/29 04:36:34;;;;;;;;;;;;;;;21.70;48.30;99868.17;104464;1309;60950;-85
2022/09/29 04:38:59;;;;;;;;;;;;;;;21.70;48.20;99870.30;104242;1308;62008;-83
2022/09/29 04:41:25;;;;;;;;;;;;;;;21.70;48.36;99868.17;104361;1309;62133;-82
2022/09/29 04:43:50;;;;;;;;;;;;;;;21.69;48.31;99865.77;104223;1308;62076;-83
2022/09/29 04:46:16;;;;;;;;;;;;;;;21.68;48.29;99870.80;104338;1309;60845;-82
2022/09/29 04:48:41;;;;;;;;;;;;;;;21.67;48.34;99871.08;104318;1309;62062;-83
2022/09/29 04:51:09;;;;;;;;;;;;;;;21.67;48.23;99876.44;104235;1309;62066;-84
2022/09/29 04:53:34;;;;;;;;;;;;;;;21.67;48.35;99878.08;104219;1308;72986;-84
2022/09/29 04:56:03;;;;;;;;;;;;;;;21.66;48.38;99874.77;104470;1308;62212;-84
2022/09/29 04:58:29;;;;;;;;;;;;;;;21.65;48.33;99878.61;104167;1309;61916;-84
2022/09/29 05:00:54;;;;;;;;;;;;;;;21.64;48.20;99883.54;104376;1308;62084;-83
2022/09/29 05:03:22;;;;;;;;;;;;;;;21.60;48.33;99888.35;104432;1308;60942;-83
2022/09/29 05:05:48;;;;;;;;;;;;;;;21.57;48.38;99886.14;104411;1308;60429;-84
2022/09/29 05:08:13;;;;;;;;;;;;;;;21.57;48.51;99887.16;104181;1308;62120;-86
2022/09/29 05:10:40;;;;;;;;;;;;;;;21.58;48.44;99886.14;104316;1309;62101;-84
2022/09/29 05:13:05;;;;;;;;;;;;;;;21.60;48.46;99883.71;104248;1308;62375;-84
2022/09/29 05:15:31;;;;;;;;;;;;;;;21.60;48.33;99883.31;104323;1308;62126;-84
2022/09/29 05:17:59;;;;;;;;;;;;;;;21.61;48.39;99882.70;104282;1308;62068;-83
2022/09/29 05:20:25;;;;;;;;;;;;;;;21.62;48.41;99885.84;104409;1306;60420;-83
2022/09/29 05:22:50;;;;;;;;;;;;;;;21.63;48.34;99885.39;104421;1308;62194;-81
2022/09/29 05:25:16;;;;;;;;;;;;;;;21.64;48.38;99888.75;104325;1308;62080;-84
2022/09/29 05:27:41;;;;;;;;;;;;;;;21.65;48.33;99886.38;104194;1308;62212;-82
2022/09/29 05:30:07;;;;;;;;;;;;;;;21.64;48.26;99886.39;104410;1309;62205;-82
2022/09/29 05:32:32;;;;;;;;;;;;;;;21.65;48.29;99892.82;104413;1308;62133;-83
2022/09/29 05:34:58;;;;;;;;;;;;;;;21.65;48.18;99898.70;104424;1308;62121;-82
2022/09/29 05:37:24;;;;;;;;;;;;;;;21.63;48.13;99905.98;104335;1309;62076;-84
2022/09/29 05:39:49;;;;;;;;;;;;;;;21.62;48.17;99904.65;104374;1309;60793;-82
2022/09/29 05:42:15;;;;;;;;;;;;;;;21.63;48.19;99903.00;104496;1309;62228;-83
2022/09/29 05:44:40;;;;;;;;;;;;;;;21.62;48.24;99901.48;104235;1308;62105;-82
2022/09/29 05:47:06;;;;;;;;;;;;;;;21.61;48.12;99898.30;104174;1309;62108;-83
2022/09/29 05:49:32;;;;;;;;;;;;;;;21.61;48.05;99899.38;104228;1309;60430;-84
2022/09/29 05:51:58;;;;;;;;;;;;;;;21.61;47.98;99902.44;104217;1309;62115;-83
2022/09/29 05:54:26;;;;;;;;;;;;;;;21.56;48.04;99905.35;103956;1309;62578;-82
2022/09/29 05:56:51;;;;;;;;;;;;;;;21.49;48.02;99904.52;104026;1309;62062;-83
2022/09/29 05:59:17;;;;;;;;;;;;;;;21.45;48.15;99905.61;104107;1309;62629;-84
2022/09/29 06:01:43;;;;;;;;;;;;;;;21.43;48.22;99904.98;104218;1311;61983;-84
2022/09/29 06:04:08;;;;;;;;;;;;;;;21.43;48.30;99903.41;104238;1309;62101;-84
2022/09/29 06:06:35;;;;;;;;;;;;;;;21.42;48.28;99901.86;104292;1309;62071;-83
2022/09/29 06:09:02;;;;;;;;;;;;;;;21.43;48.32;99900.02;104347;1309;60482;-83
2022/09/29 06:11:28;;;;;;;;;;;;;;;21.43;48.40;99899.10;104989;1307;74154;-84
2022/09/29 06:13:54;;;;;;;;;;;;;;;21.45;48.35;99898.46;104404;1308;62105;-83
2022/09/29 06:16:20;;;;;;;;;;;;;;;21.46;48.49;99897.22;104295;1309;62235;-83
2022/09/29 06:18:46;;;;;;;;;;;;;;;21.48;48.47;99902.06;104309;1308;62094;-83
2022/09/29 06:21:14;;;;;;;;;;;;;;;21.50;48.35;99907.10;104335;1309;62133;-84
2022/09/29 06:23:40;;;;;;;;;;;;;;;21.52;48.33;99909.77;104344;1308;62466;-83
2022/09/29 06:26:06;;;;;;;;;;;;;;;21.54;48.32;99910.20;104482;1308;62072;-83
2022/09/29 06:28:32;;;;;;;;;;;;;;;21.56;48.34;99905.55;105280;1308;60203;-83
2022/09/29 06:31:02;;;;;;;;;;;;;;;21.57;48.45;99904.37;104350;1308;62037;-83
2022/09/29 06:33:28;;;;;;;;;;;;;;;21.58;48.32;99903.73;104350;1309;76590;-83
2022/09/29 06:38:40;;;;;;;;;;;;;;;21.58;48.16;99909.61;104407;1308;61959;-82
2022/09/29 06:41:06;;;;;;;;;;;;;;;21.51;48.21;99910.62;104234;1308;62244;-83
2022/09/29 06:43:32;;;;;;;;;;;;;;;21.45;48.21;99910.73;104229;1309;62132;-82
2022/09/29 06:45:58;;;;;;;;;;;;;;;21.43;48.14;99910.04;104335;1309;62196;-83
2022/09/29 06:48:23;;;;;;;;;;;;;;;21.40;48.20;99907.45;104303;1308;61972;-82
2022/09/29 06:50:48;;;;;;;;;;;;;;;21.35;48.14;99904.25;104184;1308;62100;-82
2022/09/29 06:53:14;;;;;;;;;;;;;;;21.29;48.14;99896.54;104286;1308;75266;-83
2022/09/29 06:55:40;;;;;;;;;;;;;;;21.30;48.34;99893.05;104186;1308;62110;-84
2022/09/29 06:58:07;;;;;;;;;;;;;;;21.36;48.43;99898.44;104188;1309;60711;-83
2022/09/29 07:00:33;;;;;;;;;;;;;;;21.40;48.37;99901.91;104359;1308;62123;-83
2022/09/29 07:02:59;;;;;;;;;;;;;;;21.42;48.45;99900.63;104326;1308;61928;-82
2022/09/29 07:05:24;;;;;;;;;;;;;;;21.45;48.42;99898.94;104312;1309;62189;-82
2022/09/29 07:07:50;;;;;;;;;;;;;;;21.40;48.42;99903.27;104260;1308;60206;-83
2022/09/29 07:10:16;;;;;;;;;;;;;;;21.37;48.44;99903.73;104295;1309;62221;-83
2022/09/29 07:12:45;;;;;;;;;;;;;;;21.39;48.48;99905.57;104275;1308;61545;-83
2022/09/29 07:15:14;;;;;;;;;;;;;;;21.39;48.49;99904.79;104327;1308;72983;-83
2022/09/29 07:17:39;;;;;;;;;;;;;;;21.40;48.61;99905.61;104283;1308;75546;-82
2022/09/29 07:20:06;;;;;;;;;;;;;;;21.40;48.53;99908.36;104227;1308;62173;-81
2022/09/29 07:22:31;;;;;;;;;;;;;;;21.40;48.72;99911.35;104332;1308;62030;-81
2022/09/29 07:24:57;;;;;;;;;;;;;;;21.44;48.42;99913.91;104418;1308;62186;-84
2022/09/29 07:27:23;;;;;;;;;;;;;;;21.46;48.61;99915.51;104203;1308;62209;-82
2022/09/29 07:29:51;;;;;;;;;;;;;;;21.47;48.46;99917.57;104230;1309;60784;-82
2022/09/29 07:32:17;;;;;;;;;;;;;;;21.43;48.30;99923.48;104095;1309;61976;-84
2022/09/29 07:34:43;;;;;;;;;;;;;;;21.33;48.48;99918.75;104266;1309;62496;-84
2022/09/29 07:37:11;;;;;;;;;;;;;;;21.34;48.56;99917.05;104225;1308;73645;-83
2022/09/29 07:39:37;;;;;;;;;;;;;;;21.32;48.47;99921.36;104311;1309;62306;-81
2022/09/29 07:42:02;;;;;;;;;;;;;;;21.33;48.49;99923.65;104353;1308;62194;-85
2022/09/29 07:44:30;;;;;;;;;;;;;;;21.33;48.49;99924.34;104248;1307;62320;-83
2022/09/29 07:46:56;;;;;;;;;;;;;;;21.33;48.48;99928.09;104310;1308;62137;-83
2022/09/29 07:49:22;;;;;;;;;;;;;;;21.35;48.38;99929.13;104398;1308;62078;-82
2022/09/29 07:51:48;;;;;;;;;;;;;;;21.34;48.25;99928.14;104391;1308;60784;-84
2022/09/29 07:54:14;;;;;;;;;;;;;;;21.36;48.44;99933.55;104294;1308;62107;-84
2022/09/29 07:56:39;;;;;;;;;;;;;;;21.39;48.43;99935.78;104289;1309;62189;-83
2022/09/29 07:59:05;;;;;;;;;;;;;;;21.43;48.37;99937.40;104304;1308;62184;-83
2022/09/29 08:01:30;;;;;;;;;;;;;;;21.47;48.40;99932.46;104280;1308;61495;-82
2022/09/29 08:03:57;;;;;;;;;;;;;;;21.47;48.32;99930.77;104325;1309;61082;-83
2022/09/29 08:06:25;;;;;;;;;;;;;;;21.50;48.44;99932.12;104434;1308;62069;-85
2022/09/29 08:08:50;;;;;;;;;;;;;;;21.55;48.52;99926.77;104401;1308;62161;-83
2022/09/29 08:11:16;;;;;;;;;;;;;;;21.56;48.54;99925.98;104295;1309;62148;-84
2022/09/29 08:13:42;;;;;;;;;;;;;;;21.57;48.45;99923.36;104310;1308;62201;-84
2022/09/29 08:16:09;;;;;;;;;;;;;;;21.59;48.44;99923.55;104421;1308;62110;-84
2022/09/29 08:18:34;;;;;;;;;;;;;;;21.58;48.36;99923.66;104255;1308;62101;-82
2022/09/29 08:21:00;;;;;;;;;;;;;;;21.54;48.30;99928.09;104283;1309;60296;-82
2022/09/29 08:23:26;;;;;;;;;;;;;;;21.49;48.36;99931.33;104280;1308;62146;-82
2022/09/29 08:25:58;;;;;;;;;;;;;;;21.49;48.38;99930.45;104343;1308;62051;-82
2022/09/29 08:28:24;;;;;;;;;;;;;;;21.51;48.37;99929.77;104279;1308;62076;-84
2022/09/29 08:30:49;;;;;;;;;;;;;;;21.54;48.25;99930.22;104156;1308;62156;-83
2022/09/29 08:33:15;;;;;;;;;;;;;;;21.57;48.31;99931.56;104255;1311;60163;-82
2022/09/29 08:35:41;;;;;;;;;;;;;;;21.60;48.40;99928.80;104323;1308;62078;-83
2022/09/29 08:38:06;;;;;;;;;;;;;;;21.64;48.20;99926.91;104279;1308;62317;-83
2022/09/29 08:40:32;;;;;;;;;;;;;;;21.64;48.34;99918.11;104279;1309;62121;-81
2022/09/29 08:43:03;;;;;;;;;;;;;;;21.62;48.10;99916.17;104299;1308;62141;-83
2022/09/29 08:45:34;;;;;;;;;;;;;;;21.62;48.15;99917.20;104281;1308;76621;-83
2022/09/29 08:48:04;;;;;;;;;;;;;;;21.62;48.15;99914.13;104291;1309;62662;-83
2022/09/29 08:50:30;;;;;;;;;;;;;;;21.65;48.03;99918.23;104322;1308;62381;-82
2022/09/29 08:52:58;;;;;;;;;;;;;;;21.67;48.21;99916.79;104224;1308;62114;-84
2022/09/29 08:55:39;;;;;;;;;;;;;;;21.68;48.06;99917.95;105133;1308;75334;-83
2022/09/29 08:58:06;;;;;;;;;;;;;;;21.68;47.88;99918.70;105314;1308;61443;-84
2022/09/29 09:00:41;;;;;;;;;;;;;;;21.68;47.92;99921.70;105084;1308;61741;-84
2022/09/29 09:03:15;;;;;;;;;;;;;;;21.69;47.97;99920.31;104845;1311;71786;-84
2022/09/29 09:05:44;;;;;;;;;;;;;;;21.74;48.09;99922.95;104906;1308;75423;-84
2022/09/29 09:08:16;;;;;;;;;;;;;;;21.81;48.27;99926.70;104368;1308;62034;-84
2022/09/29 09:10:45;;;;;;;;;;;;;;;21.84;48.28;99931.55;104445;1306;61435;-83
2022/09/29 09:13:20;;;;;;;;;;;;;;;21.88;48.18;99931.89;105019;1307;71896;-83
2022/09/29 09:15:46;;;;;;;;;;;;;;;21.91;48.22;99927.88;104398;1308;75524;-83
2022/09/29 09:18:21;;;;;;;;;;;;;;;21.93;48.35;99929.48;104432;1307;62123;-83
2022/09/29 09:21:09;;;;;;;;;;;;;;;21.95;48.34;99924.70;104420;1308;61288;-82
2022/09/29 09:23:47;;;;;;;;;;;;;;;21.96;48.42;99935.31;104409;1308;73979;-82
2022/09/29 09:26:13;;;;;;;;;;;;;;;21.97;48.46;99935.06;104391;1308;75721;-82
2022/09/29 09:28:47;;;;;;;;;;;;;;;21.99;48.38;99939.97;104383;1309;60219;-81
2022/09/29 09:31:15;;;;;;;;;;;;;;;22.00;48.31;99939.31;104439;1306;60779;-82
2022/09/29 09:34:01;;;;;;;;;;;;;;;22.00;48.36;99928.69;104369;1308;72870;-83
2022/09/29 09:36:45;;;;;;;;;;;;;;;22.01;48.22;99928.65;104294;1307;76150;-82
2022/09/29 09:39:12;;;;;;;;;;;;;;;22.02;48.25;99924.27;104399;1308;61970;-83
2022/09/29 09:41:37;;;;;;;;;;;;;;;22.03;48.22;99919.32;104266;1309;61993;-83
2022/09/29 09:44:03;;;;;;;;;;;;;;;22.03;48.11;99916.41;104276;1311;60828;-82
2022/09/29 09:46:35;;;;;;;;;;;;;;;22.05;47.82;99913.58;104426;1307;60174;-83
2022/09/29 09:49:02;;;;;;;;;;;;;;;22.05;47.77;99911.92;104264;1310;60861;-83
2022/09/29 09:51:30;;;;;;;;;;;;;;;22.06;47.75;99916.73;104239;1308;61900;-83
2022/09/29 09:53:57;;;;;;;;;;;;;;;22.07;47.69;99915.07;104450;1308;73836;-85
2022/09/29 09:56:34;;;;;;;;;;;;;;;22.07;47.84;99917.52;104301;1311;62107;-84
2022/09/29 09:59:06;;;;;;;;;;;;;;;22.08;47.88;99919.27;105179;1308;60282;-84
2022/09/29 10:01:32;;;;;;;;;;;;;;;22.08;47.86;99911.90;104303;1308;223496;-84
2022/09/29 10:03:57;;;;;;;;;;;;;;;22.09;47.92;99910.02;104102;1308;61374;-82
2022/09/29 10:06:23;;;;;;;;;;;;;;;22.10;48.16;99910.06;104374;1308;62768;-83
2022/09/29 10:08:48;;;;;;;;;;;;;;;22.12;48.30;99907.64;104556;1308;60904;-83
2022/09/29 10:11:13;;;;;;;;;;;;;;;22.13;48.42;99908.20;104633;1308;60703;-84
2022/09/29 10:13:39;;;;;;;;;;;;;;;22.16;48.37;99909.80;104479;1308;60332;-83
2022/09/29 10:16:04;;;;;;;;;;;;;;;22.21;48.40;99909.86;104507;1308;60572;-83
2022/09/29 10:18:38;;;;;;;;;;;;;;;22.24;48.34;99908.52;104534;1307;60713;-83
2022/09/29 10:21:03;;;;;;;;;;;;;;;22.25;48.34;99913.58;104508;1308;60431;-82
2022/09/29 10:23:29;;;;;;;;;;;;;;;22.25;48.25;99918.78;104425;1308;60221;-83
2022/09/29 10:26:14;;;;;;;;;;;;;;;22.25;48.29;99923.81;104374;1308;60146;-84
2022/09/29 10:29:00;;;;;;;;;;;;;;;22.25;48.33;99925.10;104421;1308;77016;-83
2022/09/29 10:31:26;;;;;;;;;;;;;;;22.25;48.41;99924.37;104365;1308;60508;-82
2022/09/29 10:33:53;;;;;;;;;;;;;;;22.25;48.26;99926.66;104395;1309;61949;-84
2022/09/29 10:36:20;;;;;;;;;;;;;;;22.26;48.29;99925.73;104437;1307;74025;-84
2022/09/29 10:38:47;;;;;;;;;;;;;;;22.26;48.20;99928.58;104370;1308;75967;-84
2022/09/29 10:41:12;;;;;;;;;;;;;;;22.25;48.21;99928.44;104246;1308;61956;-83
2022/09/29 10:43:43;;;;;;;;;;;;;;;22.24;48.20;99928.86;104349;1308;62133;-84
2022/09/29 10:46:27;;;;;;;;;;;;;;;22.24;48.15;99934.63;104308;1309;72759;-84
2022/09/29 10:49:28;;;;;;;;;;;;;;;22.23;48.32;99936.16;104327;1308;77631;-82
2022/09/29 10:51:55;;;;;;;;;;;;;;;22.23;48.23;99933.33;103830;1315;62357;-82
2022/09/29 10:54:24;;;;;;;;;;;;;;;22.22;48.29;99931.77;103834;1315;61888;-83
2022/09/29 10:56:50;;;;;;;;;;;;;;;22.21;48.36;99930.23;103834;1315;72764;-81
2022/09/29 10:59:16;;;;;;;;;;;;;;;22.21;48.32;99926.81;104400;1314;60366;-82
2022/09/29 11:01:44;;;;;;;;;;;;;;;22.23;48.41;99922.60;104356;1314;60296;-83
2022/09/29 11:04:18;;;;;;;;;;;;;;;22.24;48.63;99922.23;104413;1316;60706;-81
2022/09/29 11:06:43;;;;;;;;;;;;;;;22.26;48.80;99921.19;104409;1315;72980;-82
2022/09/29 11:09:14;;;;;;;;;;;;;;;22.29;48.69;99918.31;104286;1316;61562;-82
2022/09/29 11:11:40;;;;;;;;;;;;;;;22.31;48.85;99918.97;104579;1315;61255;-82
2022/09/29 11:14:08;;;;;;;;;;;;;;;22.33;48.88;99915.36;104623;1315;60481;-82
2022/09/29 11:16:35;;;;;;;;;;;;;;;22.34;48.95;99909.96;104613;1316;72803;-82
2022/09/29 11:19:06;;;;;;;;;;;;;;;22.35;48.88;99908.44;104680;1313;76659;-82
2022/09/29 11:21:41;;;;;;;;;;;;;;;22.36;48.75;99904.02;104670;1316;60223;-83
2022/09/29 11:24:06;;;;;;;;;;;;;;;22.39;48.64;99908.81;104030;1315;60551;-83
2022/09/29 11:26:35;;;;;;;;;;;;;;;22.40;48.64;99909.23;103798;1317;62091;-82
2022/09/29 11:29:16;;;;;;;;;;;;;;;22.41;48.61;99907.74;104372;1308;76634;-83
2022/09/29 11:31:45;;;;;;;;;;;;;;;22.40;48.64;99901.88;104250;1308;61855;-82
2022/09/29 11:34:11;;;;;;;;;;;;;;;22.40;48.49;99905.42;104377;1308;60870;-84
2022/09/29 11:36:43;;;;;;;;;;;;;;;22.41;48.41;99906.39;104418;1308;73973;-83
2022/09/29 11:39:18;;;;;;;;;;;;;;;22.42;48.42;99907.39;104273;1308;76332;-82
2022/09/29 11:41:49;;;;;;;;;;;;;;;22.42;48.37;99904.92;104466;1307;61998;-85
2022/09/29 11:44:18;;;;;;;;;;;;;;;22.41;48.40;99903.58;104360;1308;60776;-83
2022/09/29 11:46:59;;;;;;;;;;;;;;;22.40;48.47;99903.64;104337;1309;73081;-83
2022/09/29 11:49:27;;;;;;;;;;;;;;;22.40;48.50;99906.33;104019;1307;74420;-82
2022/09/29 11:51:53;;;;;;;;;;;;;;;22.40;48.52;99904.01;104322;1308;62220;-83
2022/09/29 11:54:25;;;;;;;;;;;;;;;22.41;48.63;99908.61;104251;1309;62062;-83
2022/09/29 11:56:56;;;;;;;;;;;;;;;22.41;48.61;99908.55;104464;1308;72603;-82
2022/09/29 11:59:41;;;;;;;;;;;;;;;22.42;48.75;99910.27;104304;1308;76977;-82
2022/09/29 12:02:16;;;;;;;;;;;;;;;22.43;48.61;99914.10;104306;1308;62009;-83
2022/09/29 12:04:48;;;;;;;;;;;;;;;22.43;48.52;99912.00;104315;1309;61807;-83
2022/09/29 12:07:20;;;;;;;;;;;;;;;22.42;48.50;99912.79;104284;1309;74002;-83
2022/09/29 12:10:06;;;;;;;;;;;;;;;22.42;48.47;99912.29;104466;1309;75766;-85
2022/09/29 12:12:35;;;;;;;;;;;;;;;22.40;48.54;99907.57;104492;1308;61964;-85
2022/09/29 12:15:07;;;;;;;;;;;;;;;22.40;48.42;99906.75;104263;1309;63341;-83
2022/09/29 12:17:34;;;;;;;;;;;;;;;22.38;48.46;99903.81;104384;1308;72827;-82
2022/09/29 12:20:04;;;;;;;;;;;;;;;22.37;48.51;99906.23;104589;1309;76690;-83
2022/09/29 12:22:30;;;;;;;;;;;;;;;22.37;48.41;99908.61;104318;1309;62011;-83
2022/09/29 12:24:56;;;;;;;;;;;;;;;22.36;48.38;99910.15;104282;1309;62046;-83
2022/09/29 12:27:35;;;;;;;;;;;;;;;22.35;48.32;99910.77;104273;1308;62167;-84
2022/09/29 12:30:02;;;;;;;;;;;;;;;22.34;48.29;99910.29;104271;1309;77517;-83
2022/09/29 12:32:36;;;;;;;;;;;;;;;22.33;48.25;99909.29;104273;1309;61977;-85
2022/09/29 12:35:02;;;;;;;;;;;;;;;22.34;48.06;99909.37;104518;1308;62025;-83
2022/09/29 12:37:35;;;;;;;;;;;;;;;22.38;47.90;99910.89;104279;1308;62071;-83
2022/09/29 12:40:04;;;;;;;;;;;;;;;22.38;47.74;99907.97;104254;1307;75415;-82
2022/09/29 12:42:32;;;;;;;;;;;;;;;22.38;47.78;99912.08;104421;1307;61956;-83
2022/09/29 12:45:07;;;;;;;;;;;;;;;22.37;47.75;99907.52;104259;1309;62152;-83
2022/09/29 12:47:32;;;;;;;;;;;;;;;22.36;47.84;99907.98;104502;1307;72953;-85
2022/09/29 12:50:03;;;;;;;;;;;;;;;22.35;47.77;99905.02;104449;1308;62105;-85